createdAt,value
2023-07-24T00:00:41.699Z,77.18
2023-07-24T00:01:44.493Z,76.63
2023-07-24T00:02:46.833Z,77.01
2023-07-24T00:03:49.525Z,77.04
2023-07-24T00:04:52.398Z,77.13
2023-07-24T00:07:11.062Z,75.79
2023-07-24T00:08:14.305Z,75.69
2023-07-24T00:09:17.275Z,75.16
2023-07-24T00:10:19.981Z,75.42
2023-07-24T00:11:22.603Z,75.30
2023-07-24T00:12:25.517Z,75.18
2023-07-24T00:13:27.819Z,75.68
2023-07-24T00:14:30.201Z,75.75
2023-07-24T00:15:32.547Z,75.90
2023-07-24T00:16:35.230Z,75.62
2023-07-24T00:17:37.699Z,75.32
2023-07-24T00:18:40.269Z,75.63
2023-07-24T00:19:42.668Z,75.38
2023-07-24T00:20:45.122Z,75.64
2023-07-24T00:21:47.434Z,76.31
2023-07-24T00:22:49.599Z,76.15
2023-07-24T00:23:52.722Z,75.59
2023-07-24T00:24:55.057Z,75.49
2023-07-24T00:25:57.394Z,75.39
2023-07-24T00:26:59.786Z,75.22
2023-07-24T00:28:02.147Z,75.07
2023-07-24T00:29:04.498Z,74.86
2023-07-24T00:30:08.991Z,74.68
2023-07-24T00:31:12.541Z,75.29
2023-07-24T00:32:15.140Z,75.25
2023-07-24T00:33:17.330Z,75.29
2023-07-24T00:34:20.938Z,75.19
2023-07-24T00:35:23.664Z,75.32
2023-07-24T00:36:26.932Z,74.93
2023-07-24T00:37:29.638Z,74.70
2023-07-24T00:38:32.156Z,74.60
2023-07-24T00:39:34.407Z,74.14
2023-07-24T00:40:37.232Z,74.10
2023-07-24T00:41:42.186Z,74.15
2023-07-24T00:42:50.059Z,74.00
2023-07-24T00:43:52.378Z,74.13
2023-07-24T00:44:54.616Z,74.60
2023-07-24T00:45:58.139Z,74.36
2023-07-24T00:47:01.205Z,74.33
2023-07-24T00:48:03.681Z,74.91
2023-07-24T00:49:06.054Z,74.99
2023-07-24T00:50:10.414Z,74.63
2023-07-24T00:51:12.874Z,75.18
2023-07-24T00:52:16.269Z,75.96
2023-07-24T00:53:20.345Z,76.03
2023-07-24T00:54:24.512Z,76.28
2023-07-24T00:55:27.422Z,76.60
2023-07-24T00:56:33.193Z,76.33
2023-07-24T00:57:35.808Z,76.44
2023-07-24T00:58:39.145Z,76.15
2023-07-24T00:59:42.774Z,76.12
2023-07-24T01:00:45.801Z,76.42
2023-07-24T01:01:48.594Z,76.79
2023-07-24T01:02:52.124Z,77.17
2023-07-24T01:03:57.881Z,77.19
2023-07-24T01:05:02.183Z,77.69
2023-07-24T01:06:05.197Z,77.94
2023-07-24T01:07:07.574Z,78.33
2023-07-24T01:08:10.620Z,78.51
2023-07-24T01:09:14.084Z,78.47
2023-07-24T01:10:17.081Z,78.03
2023-07-24T01:11:23.605Z,77.96
2023-07-24T01:12:42.149Z,77.78
2023-07-24T01:13:50.961Z,77.89
2023-07-24T01:14:56.930Z,78.16
2023-07-24T01:16:09.350Z,78.59
2023-07-24T01:17:15.375Z,78.15
2023-07-24T01:18:19.898Z,78.46
2023-07-24T01:19:40.396Z,78.55
2023-07-24T01:20:46.378Z,79.27
2023-07-24T01:22:02.081Z,78.04
2023-07-24T01:23:41.951Z,78.28
2023-07-24T01:26:08.441Z,78.77
2023-07-24T01:27:10.895Z,78.24
2023-07-24T01:28:13.758Z,77.94
2023-07-24T01:29:16.176Z,78.67
2023-07-24T01:30:21.914Z,78.79
2023-07-24T01:31:25.233Z,79.19
2023-07-24T01:32:28.387Z,79.39
2023-07-24T01:33:32.295Z,79.61
2023-07-24T01:34:34.616Z,79.43
2023-07-24T01:35:39.193Z,79.34
2023-07-24T01:36:41.819Z,79.21
2023-07-24T01:37:45.692Z,78.34
2023-07-24T01:38:50.316Z,78.07
2023-07-24T01:39:55.025Z,80.32
2023-07-24T01:40:58.215Z,78.84
2023-07-24T01:42:02.809Z,77.71
2023-07-24T01:43:05.286Z,77.70
2023-07-24T01:44:07.965Z,78.00
2023-07-24T01:45:11.984Z,77.97
2023-07-24T01:46:14.464Z,77.78
2023-07-24T01:47:16.810Z,78.51
2023-07-24T01:48:19.146Z,77.64
2023-07-24T01:49:21.412Z,76.50
2023-07-24T01:50:23.818Z,76.99
2023-07-24T01:51:28.170Z,76.05
2023-07-24T01:52:30.649Z,76.40
2023-07-24T01:53:33.242Z,77.12
2023-07-24T01:54:36.131Z,76.16
2023-07-24T01:55:39.316Z,75.95
2023-07-24T01:56:42.003Z,75.54
2023-07-24T01:57:44.592Z,75.00
2023-07-24T01:58:46.841Z,75.15
2023-07-24T01:59:49.743Z,74.41
2023-07-24T02:00:56.446Z,76.31
2023-07-24T02:01:58.692Z,74.84
2023-07-24T02:03:02.058Z,74.76
2023-07-24T02:04:04.830Z,74.32
2023-07-24T02:05:09.394Z,75.85
2023-07-24T02:06:11.930Z,75.96
2023-07-24T02:07:14.684Z,76.11
2023-07-24T02:08:17.148Z,76.32
2023-07-24T02:09:20.313Z,75.47
2023-07-24T02:10:22.849Z,75.26
2023-07-24T02:11:27.659Z,76.44
2023-07-24T02:12:33.078Z,76.75
2023-07-24T02:13:35.641Z,77.59
2023-07-24T02:14:38.241Z,78.06
2023-07-24T02:15:41.124Z,78.25
2023-07-24T02:16:44.795Z,79.06
2023-07-24T02:17:47.378Z,80.29
2023-07-24T02:18:51.042Z,80.66
2023-07-24T02:19:53.512Z,81.29
2023-07-24T02:20:57.267Z,82.29
2023-07-24T02:22:00.795Z,82.80
2023-07-24T02:23:02.940Z,83.33
2023-07-24T02:24:05.716Z,83.71
2023-07-24T02:25:08.955Z,83.06
2023-07-24T02:26:11.767Z,83.02
2023-07-24T02:27:17.413Z,82.94
2023-07-24T02:28:19.954Z,82.83
2023-07-24T02:29:23.112Z,82.41
2023-07-24T02:30:26.374Z,82.35
2023-07-24T02:31:28.761Z,82.78
2023-07-24T02:32:32.989Z,82.50
2023-07-24T02:33:35.426Z,83.11
2023-07-24T02:34:37.818Z,83.03
2023-07-24T02:35:41.828Z,83.49
2023-07-24T02:36:44.258Z,83.21
2023-07-24T02:37:46.666Z,82.43
2023-07-24T02:38:48.939Z,82.29
2023-07-24T02:39:53.905Z,82.95
2023-07-24T02:40:56.880Z,83.06
2023-07-24T02:41:59.139Z,83.06
2023-07-24T02:43:01.456Z,83.05
2023-07-24T02:44:05.664Z,83.05
2023-07-24T02:45:10.662Z,82.74
2023-07-24T02:46:13.305Z,83.13
2023-07-24T02:47:15.595Z,83.18
2023-07-24T02:48:18.434Z,83.39
2023-07-24T02:49:20.696Z,83.60
2023-07-24T02:50:23.499Z,83.84
2023-07-24T02:51:26.261Z,84.09
2023-07-24T02:52:28.697Z,84.38
2023-07-24T02:53:31.125Z,84.26
2023-07-24T02:54:33.507Z,84.21
2023-07-24T02:55:36.089Z,84.40
2023-07-24T02:56:39.682Z,84.96
2023-07-24T02:57:43.102Z,84.90
2023-07-24T02:58:46.884Z,84.68
2023-07-24T02:59:49.685Z,83.97
2023-07-24T03:00:52.020Z,83.73
2023-07-24T03:01:54.285Z,82.98
2023-07-24T03:02:56.629Z,82.68
2023-07-24T03:03:58.813Z,82.90
2023-07-24T03:05:02.195Z,82.41
2023-07-24T03:06:04.836Z,82.33
2023-07-24T03:07:08.116Z,82.42
2023-07-24T03:08:11.553Z,82.93
2023-07-24T03:09:13.904Z,83.79
2023-07-24T03:10:16.655Z,82.72
2023-07-24T03:11:18.989Z,81.86
2023-07-24T03:12:21.472Z,82.04
2023-07-24T03:13:24.795Z,80.71
2023-07-24T03:14:27.403Z,80.23
2023-07-24T03:15:29.965Z,81.26
2023-07-24T03:16:32.796Z,80.37
2023-07-24T03:17:35.091Z,79.77
2023-07-24T03:18:37.409Z,79.74
2023-07-24T03:19:39.685Z,79.58
2023-07-24T03:20:43.563Z,79.51
2023-07-24T03:21:46.006Z,78.98
2023-07-24T03:22:48.415Z,78.80
2023-07-24T03:23:51.397Z,79.11
2023-07-24T03:24:53.897Z,79.78
2023-07-24T03:25:56.113Z,79.96
2023-07-24T03:27:01.181Z,80.07
2023-07-24T03:28:04.438Z,80.85
2023-07-24T03:29:07.428Z,80.75
2023-07-24T03:30:10.485Z,80.72
2023-07-24T03:31:13.093Z,80.73
2023-07-24T03:32:15.437Z,80.21
2023-07-24T03:33:17.824Z,80.21
2023-07-24T03:34:20.382Z,79.89
2023-07-24T03:35:22.574Z,79.33
2023-07-24T03:36:25.334Z,78.57
2023-07-24T03:37:27.790Z,78.25
2023-07-24T03:38:29.993Z,77.56
2023-07-24T03:39:32.528Z,77.36
2023-07-24T03:40:35.573Z,77.38
2023-07-24T03:42:52.022Z,78.30
2023-07-24T03:43:54.177Z,78.48
2023-07-24T03:44:59.289Z,78.24
2023-07-24T03:46:02.300Z,79.43
2023-07-24T03:47:04.770Z,77.97
2023-07-24T03:48:07.474Z,76.77
2023-07-24T03:49:09.954Z,76.88
2023-07-24T03:50:12.722Z,76.10
2023-07-24T03:51:15.747Z,75.29
2023-07-24T03:52:18.463Z,75.29
2023-07-24T03:53:20.779Z,73.90
2023-07-24T03:54:23.012Z,75.46
2023-07-24T03:55:25.448Z,74.08
2023-07-24T03:56:28.174Z,74.60
2023-07-24T03:57:30.813Z,74.28
2023-07-24T03:58:34.194Z,75.05
2023-07-24T03:59:36.844Z,73.58
2023-07-24T04:00:40.462Z,74.17
2023-07-24T04:01:44.554Z,75.95
2023-07-24T04:02:49.277Z,75.66
2023-07-24T04:03:52.826Z,77.91
2023-07-24T04:04:55.109Z,75.38
2023-07-24T04:05:57.414Z,77.16
2023-07-24T04:07:00.833Z,74.43
2023-07-24T04:08:03.650Z,75.08
2023-07-24T04:09:06.427Z,77.28
2023-07-24T04:10:09.789Z,78.19
2023-07-24T04:11:12.516Z,78.49
2023-07-24T04:12:15.092Z,77.16
2023-07-24T04:13:18.334Z,76.33
2023-07-24T04:14:21.771Z,77.48
2023-07-24T04:15:26.029Z,76.98
2023-07-24T04:16:29.590Z,76.29
2023-07-24T04:17:32.945Z,76.04
2023-07-24T04:18:35.344Z,76.22
2023-07-24T04:19:37.776Z,74.17
2023-07-24T04:20:40.061Z,74.81
2023-07-24T04:21:42.927Z,74.15
2023-07-24T04:22:46.636Z,74.70
2023-07-24T04:23:51.373Z,72.38
2023-07-24T04:24:54.071Z,72.04
2023-07-24T04:25:57.621Z,72.04
2023-07-24T04:27:01.400Z,73.08
2023-07-24T04:28:03.846Z,71.44
2023-07-24T04:29:07.700Z,72.24
2023-07-24T04:30:13.682Z,73.44
2023-07-24T04:31:17.664Z,73.38
2023-07-24T04:32:20.643Z,73.26
2023-07-24T04:33:24.995Z,73.26
2023-07-24T04:34:27.253Z,70.91
2023-07-24T04:35:29.552Z,73.01
2023-07-24T04:36:32.317Z,71.72
2023-07-24T04:37:35.123Z,73.07
2023-07-24T04:38:37.472Z,72.98
2023-07-24T04:39:40.442Z,72.34
2023-07-24T04:40:45.952Z,71.98
2023-07-24T04:41:48.719Z,74.10
2023-07-24T04:42:51.239Z,74.65
2023-07-24T04:43:53.664Z,73.61
2023-07-24T04:44:56.200Z,73.65
2023-07-24T04:45:58.456Z,73.38
2023-07-24T04:47:02.176Z,73.10
2023-07-24T04:48:05.804Z,72.89
2023-07-24T04:50:27.111Z,76.18
2023-07-24T04:51:29.437Z,76.31
2023-07-24T04:52:31.794Z,75.42
2023-07-24T04:53:34.522Z,75.68
2023-07-24T04:54:36.695Z,75.55
2023-07-24T04:55:39.288Z,75.84
2023-07-24T04:56:41.809Z,75.13
2023-07-24T04:57:44.093Z,74.71
2023-07-24T04:58:46.406Z,73.29
2023-07-24T04:59:49.217Z,74.00
2023-07-24T05:00:51.782Z,73.61
2023-07-24T05:01:54.085Z,73.76
2023-07-24T05:02:57.563Z,73.23
2023-07-24T05:04:00.025Z,73.30
2023-07-24T05:05:02.757Z,73.34
2023-07-24T05:06:05.737Z,73.10
2023-07-24T05:07:08.634Z,73.18
2023-07-24T05:08:11.938Z,72.47
2023-07-24T05:09:15.009Z,72.39
2023-07-24T05:10:17.685Z,72.39
2023-07-24T05:11:21.238Z,71.96
2023-07-24T05:12:26.057Z,71.50
2023-07-24T05:13:28.415Z,71.79
2023-07-24T05:14:30.605Z,71.64
2023-07-24T05:15:33.021Z,72.37
2023-07-24T05:16:35.540Z,71.03
2023-07-24T05:17:37.937Z,71.03
2023-07-24T05:18:40.978Z,70.90
2023-07-24T05:19:43.658Z,70.21
2023-07-24T05:20:53.669Z,70.99
2023-07-24T05:21:56.343Z,70.98
2023-07-24T05:22:58.633Z,71.25
2023-07-24T05:24:03.203Z,70.68
2023-07-24T05:25:07.098Z,71.27
2023-07-24T05:26:10.266Z,70.89
2023-07-24T05:27:13.028Z,71.31
2023-07-24T05:28:15.199Z,70.81
2023-07-24T05:29:17.454Z,71.57
2023-07-24T05:30:19.857Z,70.48
2023-07-24T05:31:22.283Z,71.65
2023-07-24T05:32:25.576Z,70.46
2023-07-24T05:33:28.214Z,70.12
2023-07-24T05:34:30.768Z,69.36
2023-07-24T05:35:33.017Z,68.91
2023-07-24T05:36:35.474Z,68.71
2023-07-24T05:37:37.795Z,68.47
2023-07-24T05:38:39.853Z,68.80
2023-07-24T05:39:42.126Z,68.78
2023-07-24T05:40:44.798Z,68.70
2023-07-24T05:41:49.631Z,68.43
2023-07-24T05:42:52.180Z,69.36
2023-07-24T05:43:55.973Z,69.04
2023-07-24T05:44:58.639Z,68.11
2023-07-24T05:46:02.394Z,67.65
2023-07-24T05:47:04.938Z,68.03
2023-07-24T05:48:07.298Z,67.84
2023-07-24T05:49:09.762Z,68.47
2023-07-24T05:50:14.150Z,68.47
2023-07-24T05:51:16.737Z,67.61
2023-07-24T05:52:20.136Z,67.49
2023-07-24T05:53:22.580Z,67.50
2023-07-24T05:54:25.085Z,67.57
2023-07-24T05:55:27.600Z,67.29
2023-07-24T05:56:30.234Z,67.16
2023-07-24T05:57:33.080Z,68.14
2023-07-24T05:58:35.635Z,67.71
2023-07-24T05:59:38.032Z,67.98
2023-07-24T06:00:40.408Z,68.68
2023-07-24T06:01:43.342Z,67.48
2023-07-24T06:02:45.879Z,67.51
2023-07-24T06:03:48.240Z,67.25
2023-07-24T06:04:50.751Z,67.20
2023-07-24T06:05:54.405Z,65.46
2023-07-24T06:06:56.910Z,66.75
2023-07-24T06:07:59.312Z,66.06
2023-07-24T06:09:01.784Z,64.10
2023-07-24T06:10:05.900Z,65.14
2023-07-24T06:11:08.988Z,65.62
2023-07-24T06:12:11.467Z,65.08
2023-07-24T06:13:13.859Z,65.00
2023-07-24T06:14:17.180Z,65.64
2023-07-24T06:15:19.618Z,64.89
2023-07-24T06:16:22.592Z,64.24
2023-07-24T06:17:25.205Z,63.27
2023-07-24T06:18:27.646Z,62.94
2023-07-24T06:19:30.120Z,63.56
2023-07-24T06:20:33.416Z,63.18
2023-07-24T06:21:36.281Z,63.30
2023-07-24T06:22:38.654Z,63.22
2023-07-24T06:23:41.309Z,62.29
2023-07-24T06:24:44.105Z,62.83
2023-07-24T06:25:46.676Z,61.91
2023-07-24T06:26:49.514Z,62.78
2023-07-24T06:27:52.012Z,61.58
2023-07-24T06:28:54.736Z,62.82
2023-07-24T06:30:12.945Z,62.07
2023-07-24T06:31:03.901Z,62.56
2023-07-24T06:32:08.556Z,60.88
2023-07-24T06:33:11.204Z,60.45
2023-07-24T06:34:14.221Z,60.53
2023-07-24T06:35:16.462Z,60.14
2023-07-24T06:36:19.778Z,60.10
2023-07-24T06:37:23.091Z,58.92
2023-07-24T06:38:27.003Z,59.55
2023-07-24T06:39:30.262Z,59.31
2023-07-24T06:40:33.550Z,59.16
2023-07-24T06:41:36.066Z,59.20
2023-07-24T06:42:38.870Z,59.26
2023-07-24T06:43:44.087Z,59.26
2023-07-24T06:44:46.568Z,57.64
2023-07-24T06:45:48.980Z,56.98
2023-07-24T06:46:51.523Z,57.12
2023-07-24T06:47:56.082Z,57.23
2023-07-24T06:48:58.580Z,58.05
2023-07-24T06:50:00.977Z,58.86
2023-07-24T06:51:06.443Z,58.88
2023-07-24T06:52:08.829Z,57.58
2023-07-24T06:53:11.009Z,57.24
2023-07-24T06:54:14.294Z,57.66
2023-07-24T06:55:17.709Z,58.06
2023-07-24T06:56:20.653Z,57.37
2023-07-24T06:57:25.146Z,56.69
2023-07-24T06:58:27.654Z,57.99
2023-07-24T06:59:30.054Z,57.30
2023-07-24T07:00:32.640Z,56.23
2023-07-24T07:01:34.967Z,56.82
2023-07-24T07:02:37.077Z,56.48
2023-07-24T07:03:39.450Z,56.20
2023-07-24T07:04:43.141Z,56.91
2023-07-24T07:05:45.619Z,56.58
2023-07-24T07:06:48.361Z,57.27
2023-07-24T07:07:51.422Z,57.63
2023-07-24T07:08:53.978Z,57.52
2023-07-24T07:09:56.480Z,56.48
2023-07-24T07:11:01.733Z,57.54
2023-07-24T07:12:04.527Z,55.71
2023-07-24T07:13:07.234Z,55.90
2023-07-24T07:14:10.183Z,56.35
2023-07-24T07:15:13.506Z,55.91
2023-07-24T07:16:18.065Z,55.76
2023-07-24T07:17:20.565Z,56.44
2023-07-24T07:18:22.896Z,56.04
2023-07-24T07:19:25.121Z,56.52
2023-07-24T07:20:27.392Z,56.41
2023-07-24T07:21:29.775Z,56.67
2023-07-24T07:22:32.052Z,56.55
2023-07-24T07:23:34.834Z,56.42
2023-07-24T07:24:37.063Z,54.93
2023-07-24T07:25:40.120Z,55.61
2023-07-24T07:26:42.654Z,55.97
2023-07-24T07:27:46.567Z,55.03
2023-07-24T07:28:48.943Z,54.86
2023-07-24T07:29:51.295Z,54.80
2023-07-24T07:30:54.665Z,54.67
2023-07-24T07:31:57.199Z,54.72
2023-07-24T07:32:59.675Z,55.12
2023-07-24T07:34:01.955Z,54.86
2023-07-24T07:35:05.118Z,55.39
2023-07-24T07:36:07.873Z,54.30
2023-07-24T07:37:10.669Z,54.32
2023-07-24T07:38:14.284Z,55.09
2023-07-24T07:39:16.580Z,54.98
2023-07-24T07:40:18.949Z,54.96
2023-07-24T07:41:21.501Z,55.01
2023-07-24T07:42:24.299Z,55.01
2023-07-24T07:43:26.898Z,55.10
2023-07-24T07:44:29.106Z,55.42
2023-07-24T07:45:31.519Z,55.14
2023-07-24T07:46:34.147Z,54.29
2023-07-24T07:47:36.436Z,54.70
2023-07-24T07:48:39.739Z,53.99
2023-07-24T07:49:43.462Z,53.87
2023-07-24T07:50:49.432Z,53.84
2023-07-24T07:51:51.635Z,54.02
2023-07-24T07:52:54.829Z,54.13
2023-07-24T07:53:57.665Z,54.30
2023-07-24T07:55:00.951Z,54.37
2023-07-24T07:56:03.665Z,54.49
2023-07-24T07:57:06.594Z,53.59
2023-07-24T07:58:09.830Z,53.81
2023-07-24T07:59:12.291Z,53.18
2023-07-24T08:00:15.968Z,53.55
2023-07-24T08:01:19.590Z,53.50
2023-07-24T08:02:22.804Z,53.87
2023-07-24T08:03:25.750Z,53.39
2023-07-24T08:04:29.193Z,53.39
2023-07-24T08:05:32.524Z,53.19
2023-07-24T08:06:35.165Z,53.08
2023-07-24T08:07:37.667Z,52.08
2023-07-24T08:08:41.014Z,52.08
2023-07-24T08:09:44.497Z,52.75
2023-07-24T08:10:47.046Z,51.31
2023-07-24T08:11:49.405Z,51.38
2023-07-24T08:12:51.889Z,51.31
2023-07-24T08:13:54.677Z,51.14
2023-07-24T08:14:57.119Z,51.14
2023-07-24T08:16:00.110Z,50.83
2023-07-24T08:17:03.857Z,51.40
2023-07-24T08:18:07.253Z,51.33
2023-07-24T08:19:10.565Z,50.92
2023-07-24T08:20:13.547Z,50.32
2023-07-24T08:21:16.196Z,51.12
2023-07-24T08:22:20.480Z,50.78
2023-07-24T08:23:23.091Z,50.25
2023-07-24T08:24:26.372Z,50.25
2023-07-24T08:25:28.998Z,50.28
2023-07-24T08:26:31.922Z,50.28
2023-07-24T08:27:45.318Z,50.92
2023-07-24T08:28:43.392Z,50.14
2023-07-24T08:29:45.729Z,50.63
2023-07-24T08:31:01.213Z,50.59
2023-07-24T08:32:05.897Z,50.26
2023-07-24T08:33:08.324Z,50.44
2023-07-24T08:34:11.055Z,49.92
2023-07-24T08:35:13.611Z,50.15
2023-07-24T08:36:17.018Z,50.24
2023-07-24T08:37:20.728Z,50.19
2023-07-24T08:38:25.309Z,50.70
2023-07-24T08:39:28.289Z,49.54
2023-07-24T08:40:30.823Z,48.78
2023-07-24T08:41:35.606Z,48.09
2023-07-24T08:42:43.542Z,48.87
2023-07-24T08:43:46.284Z,48.97
2023-07-24T08:44:49.179Z,49.59
2023-07-24T08:45:53.145Z,49.59
2023-07-24T08:46:56.647Z,48.62
2023-07-24T08:48:00.369Z,49.14
2023-07-24T08:49:02.948Z,48.71
2023-07-24T08:50:07.520Z,48.98
2023-07-24T08:51:11.641Z,49.37
2023-07-24T08:52:26.914Z,49.77
2023-07-24T08:53:21.739Z,48.53
2023-07-24T08:54:27.170Z,48.94
2023-07-24T08:55:31.390Z,49.48
2023-07-24T08:56:34.170Z,48.15
2023-07-24T08:57:37.229Z,48.72
2023-07-24T08:58:42.558Z,47.84
2023-07-24T08:59:44.960Z,47.86
2023-07-24T09:00:48.390Z,48.42
2023-07-24T09:01:51.278Z,49.11
2023-07-24T09:02:53.792Z,49.25
2023-07-24T09:03:58.260Z,49.00
2023-07-24T09:05:01.243Z,49.27
2023-07-24T09:06:10.752Z,49.49
2023-07-24T09:07:15.068Z,49.22
2023-07-24T09:08:17.782Z,48.68
2023-07-24T09:09:21.274Z,48.49
2023-07-24T09:10:27.858Z,48.58
2023-07-24T09:11:30.476Z,48.90
2023-07-24T09:12:33.058Z,48.92
2023-07-24T09:13:42.450Z,49.35
2023-07-24T09:14:46.299Z,49.17
2023-07-24T09:15:48.951Z,48.77
2023-07-24T09:17:11.948Z,49.11
2023-07-24T09:18:14.661Z,49.22
2023-07-24T09:19:26.636Z,49.57
2023-07-24T09:21:33.430Z,49.15
2023-07-24T09:22:40.275Z,48.49
2023-07-24T09:23:41.451Z,48.49
2023-07-24T09:24:51.588Z,48.37
2023-07-24T09:25:54.312Z,48.55
2023-07-24T09:26:58.854Z,48.32
2023-07-24T09:28:01.049Z,48.18
2023-07-24T09:29:03.517Z,48.51
2023-07-24T09:30:16.434Z,48.40
2023-07-24T09:31:18.982Z,48.76
2023-07-24T09:32:26.382Z,48.79
2023-07-24T09:33:40.634Z,48.43
2023-07-24T09:34:44.003Z,48.88
2023-07-24T09:35:48.829Z,48.65
2023-07-24T09:36:51.377Z,48.12
2023-07-24T09:38:11.887Z,49.44
2023-07-24T09:39:14.301Z,49.44
2023-07-24T09:40:16.790Z,49.11
2023-07-24T09:41:23.354Z,48.94
2023-07-24T09:42:35.135Z,48.60
2023-07-24T09:43:39.654Z,48.30
2023-07-24T09:44:42.678Z,49.12
2023-07-24T09:45:46.490Z,49.12
2023-07-24T09:47:06.547Z,48.77
2023-07-24T09:48:00.302Z,48.60
2023-07-24T09:50:08.158Z,48.51
2023-07-24T09:51:15.888Z,48.27
2023-07-24T09:52:21.152Z,48.06
2023-07-24T09:53:36.272Z,48.09
2023-07-24T09:54:45.771Z,48.41
2023-07-24T09:55:54.550Z,48.07
2023-07-24T09:57:07.205Z,48.13
2023-07-24T09:58:04.745Z,48.21
2023-07-24T09:59:07.691Z,48.19
2023-07-24T10:00:13.377Z,48.25
2023-07-24T10:01:18.178Z,48.38
2023-07-24T10:02:22.069Z,48.33
2023-07-24T10:03:25.223Z,48.25
2023-07-24T10:04:28.656Z,47.78
2023-07-24T10:05:35.060Z,47.96
2023-07-24T10:06:38.307Z,47.49
2023-07-24T10:07:42.264Z,48.33
2023-07-24T10:08:48.080Z,47.68
2023-07-24T10:09:51.733Z,48.11
2023-07-24T10:10:55.219Z,48.02
2023-07-24T10:11:58.587Z,47.99
2023-07-24T10:13:01.428Z,47.82
2023-07-24T10:14:04.801Z,47.64
2023-07-24T10:15:08.767Z,47.67
2023-07-24T10:16:12.493Z,47.72
2023-07-24T10:17:18.863Z,47.14
2023-07-24T10:18:23.882Z,46.95
2023-07-24T10:19:39.094Z,46.67
2023-07-24T10:20:42.728Z,47.21
2023-07-24T10:21:47.615Z,47.39
2023-07-24T10:22:50.406Z,47.35
2023-07-24T10:23:53.033Z,47.31
2023-07-24T10:24:57.915Z,47.26
2023-07-24T10:26:06.997Z,46.81
2023-07-24T10:27:10.434Z,47.10
2023-07-24T10:28:16.102Z,47.22
2023-07-24T10:29:20.556Z,46.94
2023-07-24T10:30:34.801Z,45.82
2023-07-24T10:31:31.795Z,44.86
2023-07-24T10:32:36.467Z,44.66
2023-07-24T10:33:42.652Z,45.44
2023-07-24T10:34:45.867Z,44.94
2023-07-24T10:35:52.221Z,44.35
2023-07-24T10:36:58.232Z,44.35
2023-07-24T10:38:02.572Z,44.72
2023-07-24T10:39:08.949Z,44.17
2023-07-24T10:40:19.918Z,43.91
2023-07-24T10:41:22.959Z,44.67
2023-07-24T10:42:26.395Z,44.61
2023-07-24T10:43:28.542Z,44.54
2023-07-24T10:44:32.467Z,44.32
2023-07-24T10:46:55.604Z,44.95
2023-07-24T10:47:57.926Z,44.85
2023-07-24T10:49:02.930Z,44.91
2023-07-24T10:50:07.269Z,44.71
2023-07-24T10:51:10.794Z,45.49
2023-07-24T10:52:13.106Z,44.64
2023-07-24T10:53:17.519Z,44.97
2023-07-24T10:54:22.537Z,44.51
2023-07-24T10:55:25.544Z,44.53
2023-07-24T10:56:30.607Z,44.56
2023-07-24T10:57:33.042Z,45.29
2023-07-24T10:58:37.234Z,44.72
2023-07-24T10:59:40.089Z,44.18
2023-07-24T11:00:45.410Z,44.06
2023-07-24T11:01:48.263Z,44.17
2023-07-24T11:02:54.319Z,43.65
2023-07-24T11:03:56.686Z,42.76
2023-07-24T11:05:01.758Z,43.44
2023-07-24T11:06:04.674Z,43.37
2023-07-24T11:07:08.137Z,43.65
2023-07-24T11:08:16.510Z,43.40
2023-07-24T11:09:19.075Z,43.50
2023-07-24T11:10:23.668Z,43.46
2023-07-24T11:12:41.819Z,43.47
2023-07-24T11:13:44.037Z,43.11
2023-07-24T11:14:50.652Z,42.92
2023-07-24T11:15:54.503Z,42.96
2023-07-24T11:16:57.301Z,42.52
2023-07-24T11:18:02.438Z,42.94
2023-07-24T11:19:04.872Z,43.31
2023-07-24T11:20:10.436Z,42.74
2023-07-24T11:21:13.606Z,42.96
2023-07-24T11:22:16.160Z,43.29
2023-07-24T11:23:18.906Z,43.01
2023-07-24T11:24:21.251Z,42.97
2023-07-24T11:25:25.262Z,41.72
2023-07-24T11:26:28.738Z,42.23
2023-07-24T11:27:31.133Z,42.82
2023-07-24T11:28:37.852Z,42.94
2023-07-24T11:29:40.101Z,43.03
2023-07-24T11:30:44.427Z,43.06
2023-07-24T11:31:47.282Z,43.12
2023-07-24T11:32:50.554Z,42.68
2023-07-24T11:33:55.212Z,42.46
2023-07-24T11:34:57.833Z,42.36
2023-07-24T11:36:01.553Z,42.36
2023-07-24T11:37:05.512Z,42.51
2023-07-24T11:38:12.212Z,42.77
2023-07-24T11:39:15.006Z,43.21
2023-07-24T11:40:20.413Z,43.00
2023-07-24T11:41:22.893Z,42.72
2023-07-24T11:42:28.008Z,42.72
2023-07-24T11:43:30.503Z,42.14
2023-07-24T11:44:33.002Z,42.58
2023-07-24T11:45:46.333Z,42.43
2023-07-24T11:46:49.064Z,40.39
2023-07-24T11:47:54.524Z,40.70
2023-07-24T11:48:57.689Z,40.94
2023-07-24T11:50:02.928Z,41.34
2023-07-24T11:51:05.125Z,40.80
2023-07-24T11:52:08.487Z,39.69
2023-07-24T11:53:23.482Z,39.86
2023-07-24T11:54:25.811Z,40.58
2023-07-24T11:55:33.693Z,39.99
2023-07-24T11:56:36.256Z,39.00
2023-07-24T11:57:38.853Z,39.79
2023-07-24T11:58:42.390Z,38.90
2023-07-24T11:59:45.976Z,38.90
2023-07-24T12:00:52.069Z,38.86
2023-07-24T12:01:55.062Z,39.41
2023-07-24T12:03:01.867Z,38.68
2023-07-24T12:04:05.841Z,40.45
2023-07-24T12:05:10.565Z,38.10
2023-07-24T12:06:17.348Z,39.72
2023-07-24T12:07:20.828Z,39.87
2023-07-24T12:08:34.511Z,38.71
2023-07-24T12:09:38.651Z,38.80
2023-07-24T12:10:41.814Z,39.26
2023-07-24T12:11:46.996Z,39.73
2023-07-24T12:12:49.352Z,40.21
2023-07-24T12:13:51.787Z,41.12
2023-07-24T12:14:54.247Z,40.58
2023-07-24T12:15:56.878Z,41.06
2023-07-24T12:17:03.338Z,39.44
2023-07-24T12:18:06.568Z,40.36
2023-07-24T12:19:09.065Z,40.38
2023-07-24T12:20:12.640Z,40.87
2023-07-24T12:21:15.037Z,39.47
2023-07-24T12:22:19.573Z,39.72
2023-07-24T12:23:21.898Z,40.05
2023-07-24T12:24:24.247Z,39.71
2023-07-24T12:25:26.682Z,40.37
2023-07-24T12:26:29.142Z,41.40
2023-07-24T12:27:31.804Z,41.39
2023-07-24T12:28:34.368Z,39.53
2023-07-24T12:29:37.264Z,40.62
2023-07-24T12:30:41.184Z,42.35
2023-07-24T12:31:44.111Z,41.35
2023-07-24T12:32:46.686Z,39.42
2023-07-24T12:33:49.021Z,40.59
2023-07-24T12:34:53.855Z,39.86
2023-07-24T12:35:57.399Z,38.65
2023-07-24T12:37:01.024Z,38.98
2023-07-24T12:38:03.359Z,38.55
2023-07-24T12:39:05.699Z,38.58
2023-07-24T12:40:10.510Z,39.19
2023-07-24T12:41:13.235Z,39.54
2023-07-24T12:42:16.877Z,38.92
2023-07-24T12:43:19.313Z,37.92
2023-07-24T12:44:21.956Z,39.71
2023-07-24T12:45:24.216Z,38.73
2023-07-24T12:46:26.567Z,38.34
2023-07-24T12:47:29.199Z,37.22
2023-07-24T12:48:32.236Z,37.86
2023-07-24T12:49:34.962Z,37.22
2023-07-24T12:50:37.579Z,38.85
2023-07-24T12:51:39.938Z,38.54
2023-07-24T12:52:42.348Z,38.36
2023-07-24T12:53:56.274Z,36.81
2023-07-24T12:55:00.811Z,38.12
2023-07-24T12:55:56.756Z,38.59
2023-07-24T12:56:59.563Z,36.80
2023-07-24T12:58:04.302Z,38.49
2023-07-24T12:59:07.205Z,36.42
2023-07-24T13:00:10.603Z,35.81
2023-07-24T13:01:14.018Z,36.11
2023-07-24T13:02:16.379Z,35.30
2023-07-24T13:03:21.942Z,35.30
2023-07-24T13:04:25.116Z,34.90
2023-07-24T13:05:28.533Z,34.94
2023-07-24T13:06:32.747Z,34.98
2023-07-24T13:07:36.586Z,35.75
2023-07-24T13:08:38.930Z,34.68
2023-07-24T13:09:41.905Z,34.17
2023-07-24T13:10:45.420Z,33.59
2023-07-24T13:11:50.473Z,33.31
2023-07-24T13:12:53.083Z,33.68
2023-07-24T13:13:56.377Z,34.90
2023-07-24T13:14:59.341Z,34.97
2023-07-24T13:16:01.726Z,34.53
2023-07-24T13:17:04.672Z,34.53
2023-07-24T13:18:22.014Z,34.98
2023-07-24T13:19:12.432Z,35.96
2023-07-24T13:20:15.801Z,36.24
2023-07-24T13:21:23.467Z,35.41
2023-07-24T13:22:26.438Z,34.37
2023-07-24T13:23:28.568Z,35.24
2023-07-24T13:24:30.838Z,34.96
2023-07-24T13:25:33.267Z,35.34
2023-07-24T13:26:35.540Z,34.18
2023-07-24T13:27:37.846Z,34.75
2023-07-24T13:28:41.220Z,34.39
2023-07-24T13:29:44.655Z,34.76
2023-07-24T13:30:47.327Z,35.14
2023-07-24T13:31:53.705Z,34.85
2023-07-24T13:32:57.284Z,34.03
2023-07-24T13:34:00.530Z,34.34
2023-07-24T13:35:03.297Z,33.96
2023-07-24T13:36:05.769Z,34.27
2023-07-24T13:37:08.375Z,33.94
2023-07-24T13:38:10.701Z,34.02
2023-07-24T13:39:13.335Z,33.94
2023-07-24T13:40:16.081Z,33.36
2023-07-24T13:41:18.982Z,32.84
2023-07-24T13:42:22.720Z,33.68
2023-07-24T13:43:25.551Z,34.43
2023-07-24T13:44:27.830Z,33.63
2023-07-24T13:45:30.258Z,33.63
2023-07-24T13:46:32.786Z,32.92
2023-07-24T13:47:35.332Z,32.96
2023-07-24T13:48:38.519Z,32.24
2023-07-24T13:49:41.011Z,32.91